DAL693 SBBR-SBCF
Flight info
| Callsign | DAL693 |
|---|---|
| Flight time | 0h 49m |
| Altitude | 41000 |
| Route | GEPMO UZ35 REINA |
| Aircraft | A359/H-SDE2E3GHIJ3J4J5LM1ORWXY/LB1D1 |
Departure
| Time | 2026-04-30 20:18 |
|---|---|
| Airport | Presidente Juscelino Kubitschek International Airport (SBBR) |
Arrival
| Time | 2026-04-30 21:08 |
|---|---|
| Airport | Tancredo Neves International Airport (SBCF) |
| Time | Latitude | Longitude | Altitude | Speed | Heading |
|---|---|---|---|---|---|
| 2026-04-30 19:59 | -15.87279 | -47.91892 | 3476 ft | 0 kts | 355° |
| 2026-04-30 20:05 | -15.87289 | -47.91891 | 3472 ft | 3 kts | 2° |
| 2026-04-30 20:06 | -15.87305 | -47.91891 | 3475 ft | 3 kts | 1° |
| 2026-04-30 20:06 | -15.87322 | -47.91894 | 3472 ft | 3 kts | 41° |
| 2026-04-30 20:06 | -15.87331 | -47.91909 | 3472 ft | 3 kts | 84° |
| 2026-04-30 20:06 | -15.87332 | -47.91928 | 3472 ft | 2 kts | 86° |
| 2026-04-30 20:07 | -15.87332 | -47.91931 | 3472 ft | 5 kts | 85° |
| 2026-04-30 20:10 | -15.87332 | -47.91929 | 3476 ft | 2 kts | 85° |
| 2026-04-30 20:10 | -15.87329 | -47.91888 | 3474 ft | 10 kts | 85° |
| 2026-04-30 20:10 | -15.87322 | -47.91794 | 3476 ft | 15 kts | 86° |
| 2026-04-30 20:11 | -15.87420 | -47.91662 | 3476 ft | 15 kts | 175° |
| 2026-04-30 20:11 | -15.87537 | -47.91654 | 3473 ft | 18 kts | 176° |
| 2026-04-30 20:11 | -15.87640 | -47.91647 | 3473 ft | 9 kts | 176° |
| 2026-04-30 20:12 | -15.87740 | -47.91729 | 3475 ft | 13 kts | 262° |
| 2026-04-30 20:12 | -15.87742 | -47.91751 | 3475 ft | 13 kts | 265° |
| 2026-04-30 20:13 | -15.87749 | -47.91842 | 3475 ft | 16 kts | 267° |
| 2026-04-30 20:14 | -15.87756 | -47.91964 | 3477 ft | 18 kts | 266° |
| 2026-04-30 20:14 | -15.87765 | -47.92104 | 3476 ft | 21 kts | 266° |
| 2026-04-30 20:14 | -15.87776 | -47.92261 | 3474 ft | 23 kts | 266° |
| 2026-04-30 20:14 | -15.87787 | -47.92435 | 3475 ft | 25 kts | 266° |
| 2026-04-30 20:15 | -15.87800 | -47.92627 | 3475 ft | 28 kts | 266° |
| 2026-04-30 20:15 | -15.87812 | -47.92833 | 3478 ft | 30 kts | 266° |
| 2026-04-30 20:15 | -15.87826 | -47.93054 | 3478 ft | 32 kts | 266° |
| 2026-04-30 20:15 | -15.87841 | -47.93288 | 3478 ft | 33 kts | 266° |
| 2026-04-30 20:16 | -15.87857 | -47.93534 | 3477 ft | 35 kts | 266° |
| 2026-04-30 20:16 | -15.87871 | -47.93751 | 3477 ft | 17 kts | 265° |
| 2026-04-30 20:16 | -15.87877 | -47.93844 | 3476 ft | 14 kts | 266° |
| 2026-04-30 20:16 | -15.87889 | -47.93953 | 3479 ft | 16 kts | 252° |
| 2026-04-30 20:17 | -15.87973 | -47.93996 | 3483 ft | 12 kts | 180° |
| 2026-04-30 20:17 | -15.88036 | -47.93980 | 3501 ft | 7 kts | 150° |
| 2026-04-30 20:17 | -15.88059 | -47.93933 | 3498 ft | 9 kts | 95° |
| 2026-04-30 20:17 | -15.88044 | -47.93668 | 3489 ft | 74 kts | 86° |
| 2026-04-30 20:18 | -15.87994 | -47.92882 | 3479 ft | 142 kts | 86° |
| 2026-04-30 20:18 | -15.87933 | -47.91735 | 3974 ft | 164 kts | 89° |
| 2026-04-30 20:18 | -15.88478 | -47.90737 | 4813 ft | 168 kts | 146° |
| 2026-04-30 20:18 | -15.89605 | -47.90513 | 5747 ft | 164 kts | 170° |
| 2026-04-30 20:19 | -15.90795 | -47.90393 | 6091 ft | 182 kts | 166° |
| 2026-04-30 20:19 | -15.92085 | -47.90071 | 6355 ft | 200 kts | 158° |
| 2026-04-30 20:19 | -15.93468 | -47.89586 | 6598 ft | 221 kts | 157° |
| 2026-04-30 20:19 | -15.94984 | -47.89016 | 6841 ft | 242 kts | 156° |
| 2026-04-30 20:20 | -15.96630 | -47.88387 | 7097 ft | 262 kts | 157° |
| 2026-04-30 20:20 | -15.98380 | -47.87718 | 7519 ft | 272 kts | 156° |
| 2026-04-30 20:20 | -16.00179 | -47.87030 | 8064 ft | 279 kts | 156° |
| 2026-04-30 20:20 | -16.02017 | -47.86326 | 8644 ft | 283 kts | 157° |
| 2026-04-30 20:21 | -16.03870 | -47.85616 | 8987 ft | 284 kts | 156° |
| 2026-04-30 20:21 | -16.05721 | -47.84891 | 9062 ft | 285 kts | 155° |
| 2026-04-30 20:21 | -16.07455 | -47.83917 | 9069 ft | 283 kts | 141° |
| 2026-04-30 20:21 | -16.08981 | -47.82627 | 9322 ft | 285 kts | 136° |
| 2026-04-30 20:22 | -16.10472 | -47.81259 | 9979 ft | 286 kts | 136° |
| 2026-04-30 20:22 | -16.11974 | -47.79876 | 10383 ft | 295 kts | 136° |
| 2026-04-30 20:22 | -16.13548 | -47.78427 | 10609 ft | 309 kts | 136° |
| 2026-04-30 20:22 | -16.15201 | -47.76910 | 10850 ft | 323 kts | 136° |
| 2026-04-30 20:23 | -16.16904 | -47.75352 | 11242 ft | 329 kts | 137° |
| 2026-04-30 20:23 | -16.18632 | -47.73773 | 11740 ft | 332 kts | 137° |
| 2026-04-30 20:23 | -16.20365 | -47.72187 | 12230 ft | 335 kts | 137° |
| 2026-04-30 20:23 | -16.22129 | -47.70574 | 12742 ft | 337 kts | 137° |
| 2026-04-30 20:24 | -16.23900 | -47.68954 | 13200 ft | 341 kts | 137° |
| 2026-04-30 20:24 | -16.25688 | -47.67318 | 13682 ft | 343 kts | 137° |
| 2026-04-30 20:24 | -16.27485 | -47.65673 | 14126 ft | 346 kts | 137° |
| 2026-04-30 20:24 | -16.29298 | -47.64012 | 14526 ft | 348 kts | 137° |
| 2026-04-30 20:25 | -16.32944 | -47.60672 | 15324 ft | 355 kts | 137° |
| 2026-04-30 20:25 | -16.34829 | -47.58944 | 15742 ft | 358 kts | 137° |
| 2026-04-30 20:26 | -16.38638 | -47.55449 | 16406 ft | 380 kts | 137° |
| 2026-04-30 20:26 | -16.42664 | -47.51755 | 17511 ft | 390 kts | 137° |
| 2026-04-30 20:26 | -16.44713 | -47.49875 | 18079 ft | 396 kts | 137° |
| 2026-04-30 20:27 | -16.48889 | -47.46041 | 19109 ft | 404 kts | 136° |
| 2026-04-30 20:27 | -16.53138 | -47.42136 | 20189 ft | 411 kts | 136° |
| 2026-04-30 20:28 | -16.57460 | -47.38163 | 21301 ft | 417 kts | 137° |
| 2026-04-30 20:28 | -16.61843 | -47.34131 | 22476 ft | 424 kts | 137° |
| 2026-04-30 20:29 | -16.66299 | -47.30029 | 23579 ft | 431 kts | 137° |
| 2026-04-30 20:30 | -16.73117 | -47.23746 | 25034 ft | 441 kts | 137° |
| 2026-04-30 20:30 | -16.80079 | -47.17325 | 26745 ft | 450 kts | 137° |
| 2026-04-30 20:31 | -16.87174 | -47.10758 | 28444 ft | 460 kts | 137° |
| 2026-04-30 20:32 | -16.94294 | -47.03869 | 30054 ft | 471 kts | 136° |
| 2026-04-30 20:32 | -16.99129 | -46.99166 | 30865 ft | 480 kts | 137° |
| 2026-04-30 20:33 | -17.01580 | -46.96792 | 31359 ft | 481 kts | 137° |
| 2026-04-30 20:33 | -17.06512 | -46.92022 | 32213 ft | 486 kts | 137° |
| 2026-04-30 20:33 | -17.09001 | -46.89617 | 32609 ft | 489 kts | 137° |
| 2026-04-30 20:34 | -17.14030 | -46.84754 | 33309 ft | 495 kts | 137° |
| 2026-04-30 20:34 | -17.19082 | -46.79862 | 34000 ft | 501 kts | 137° |
| 2026-04-30 20:35 | -17.21626 | -46.77386 | 34456 ft | 499 kts | 137° |
| 2026-04-30 20:35 | -17.24159 | -46.74914 | 34910 ft | 497 kts | 137° |
| 2026-04-30 20:35 | -17.29216 | -46.69976 | 35669 ft | 498 kts | 138° |
| 2026-04-30 20:36 | -17.31747 | -46.67504 | 36071 ft | 497 kts | 138° |
| 2026-04-30 20:36 | -17.34274 | -46.65036 | 36495 ft | 496 kts | 138° |
| 2026-04-30 20:36 | -17.39315 | -46.60112 | 37286 ft | 495 kts | 138° |
| 2026-04-30 20:37 | -17.41827 | -46.57658 | 37676 ft | 494 kts | 138° |
| 2026-04-30 20:37 | -17.44337 | -46.55204 | 38100 ft | 492 kts | 138° |
| 2026-04-30 20:37 | -17.46835 | -46.52761 | 38498 ft | 491 kts | 138° |
| 2026-04-30 20:37 | -17.49334 | -46.50316 | 38809 ft | 491 kts | 138° |
| 2026-04-30 20:38 | -17.51830 | -46.47873 | 39096 ft | 491 kts | 138° |
| 2026-04-30 20:38 | -17.54326 | -46.45429 | 39383 ft | 491 kts | 138° |
| 2026-04-30 20:38 | -17.56820 | -46.42986 | 39662 ft | 490 kts | 138° |
| 2026-04-30 20:39 | -17.61798 | -46.38107 | 40215 ft | 490 kts | 138° |
| 2026-04-30 20:39 | -17.64283 | -46.35670 | 40488 ft | 489 kts | 138° |
| 2026-04-30 20:39 | -17.66766 | -46.33234 | 40774 ft | 488 kts | 138° |
| 2026-04-30 20:40 | -17.71735 | -46.28356 | 41001 ft | 489 kts | 138° |
| 2026-04-30 20:40 | -17.76693 | -46.23486 | 41003 ft | 488 kts | 138° |
| 2026-04-30 20:41 | -17.84126 | -46.16175 | 41010 ft | 488 kts | 138° |
| 2026-04-30 20:41 | -17.89079 | -46.11299 | 41009 ft | 488 kts | 138° |
| 2026-04-30 20:42 | -17.94033 | -46.06419 | 41022 ft | 488 kts | 138° |
| 2026-04-30 20:43 | -18.01429 | -45.99123 | 41028 ft | 488 kts | 138° |
| 2026-04-30 20:43 | -18.06379 | -45.94233 | 41021 ft | 488 kts | 138° |
| 2026-04-30 20:44 | -18.13808 | -45.86888 | 41028 ft | 489 kts | 138° |
| 2026-04-30 20:45 | -18.23719 | -45.77076 | 41023 ft | 489 kts | 138° |
| 2026-04-30 20:45 | -18.28672 | -45.72166 | 41032 ft | 489 kts | 138° |
| 2026-04-30 20:46 | -18.38569 | -45.62344 | 41022 ft | 489 kts | 138° |
| 2026-04-30 20:47 | -18.45664 | -45.54625 | 41028 ft | 491 kts | 129° |
| 2026-04-30 20:48 | -18.49822 | -45.48928 | 40487 ft | 489 kts | 129° |
| 2026-04-30 20:48 | -18.51894 | -45.46076 | 39729 ft | 491 kts | 129° |
| 2026-04-30 20:48 | -18.53978 | -45.43211 | 38972 ft | 493 kts | 129° |
| 2026-04-30 20:48 | -18.56068 | -45.40339 | 38193 ft | 494 kts | 129° |
| 2026-04-30 20:49 | -18.58160 | -45.37466 | 37424 ft | 493 kts | 129° |
| 2026-04-30 20:49 | -18.60244 | -45.34603 | 36695 ft | 493 kts | 129° |
| 2026-04-30 20:49 | -18.62333 | -45.31732 | 35941 ft | 493 kts | 129° |
| 2026-04-30 20:50 | -18.66499 | -45.26005 | 34268 ft | 498 kts | 129° |
| 2026-04-30 20:50 | -18.68617 | -45.23092 | 33262 ft | 502 kts | 128° |
| 2026-04-30 20:50 | -18.70745 | -45.20164 | 32279 ft | 504 kts | 128° |
| 2026-04-30 20:50 | -18.72879 | -45.17226 | 31279 ft | 506 kts | 128° |
| 2026-04-30 20:51 | -18.75024 | -45.14271 | 30238 ft | 509 kts | 128° |
| 2026-04-30 20:51 | -18.79341 | -45.08319 | 28305 ft | 507 kts | 128° |
| 2026-04-30 20:51 | -18.81470 | -45.05382 | 27550 ft | 501 kts | 128° |
| 2026-04-30 20:52 | -18.83577 | -45.02474 | 26785 ft | 497 kts | 127° |
| 2026-04-30 20:52 | -18.85670 | -44.99584 | 26022 ft | 493 kts | 127° |
| 2026-04-30 20:52 | -18.89800 | -44.93877 | 24497 ft | 486 kts | 127° |
| 2026-04-30 20:53 | -18.91843 | -44.91052 | 23764 ft | 482 kts | 127° |
| 2026-04-30 20:53 | -18.93876 | -44.88240 | 22906 ft | 478 kts | 127° |
| 2026-04-30 20:53 | -18.95881 | -44.85465 | 22135 ft | 473 kts | 126° |
| 2026-04-30 20:54 | -18.99816 | -44.80014 | 20640 ft | 461 kts | 127° |
| 2026-04-30 20:54 | -19.01748 | -44.77337 | 19887 ft | 456 kts | 126° |
| 2026-04-30 20:54 | -19.03660 | -44.74686 | 19142 ft | 451 kts | 126° |
| 2026-04-30 20:55 | -19.07430 | -44.69456 | 17539 ft | 443 kts | 126° |
| 2026-04-30 20:55 | -19.09288 | -44.66880 | 16758 ft | 438 kts | 127° |
| 2026-04-30 20:55 | -19.11121 | -44.64335 | 15998 ft | 432 kts | 126° |
| 2026-04-30 20:56 | -19.14688 | -44.59373 | 14509 ft | 421 kts | 127° |
| 2026-04-30 20:56 | -19.16450 | -44.56920 | 13759 ft | 416 kts | 127° |
| 2026-04-30 20:56 | -19.19909 | -44.52106 | 12139 ft | 405 kts | 127° |
| 2026-04-30 20:57 | -19.21598 | -44.49754 | 11387 ft | 399 kts | 127° |
| 2026-04-30 20:57 | -19.23248 | -44.47461 | 11056 ft | 382 kts | 127° |
| 2026-04-30 20:57 | -19.24812 | -44.45283 | 10879 ft | 362 kts | 127° |
| 2026-04-30 20:58 | -19.27695 | -44.41260 | 10630 ft | 325 kts | 126° |
| 2026-04-30 20:58 | -19.29026 | -44.39402 | 10522 ft | 308 kts | 126° |
| 2026-04-30 20:58 | -19.30291 | -44.37637 | 10399 ft | 294 kts | 126° |
| 2026-04-30 20:58 | -19.31494 | -44.35943 | 10270 ft | 283 kts | 125° |
| 2026-04-30 20:59 | -19.33108 | -44.32197 | 9649 ft | 285 kts | 108° |
| 2026-04-30 20:59 | -19.33754 | -44.30200 | 9279 ft | 288 kts | 108° |
| 2026-04-30 21:00 | -19.34830 | -44.26879 | 8573 ft | 285 kts | 108° |
| 2026-04-30 21:00 | -19.36100 | -44.23006 | 8110 ft | 267 kts | 108° |
| 2026-04-30 21:01 | -19.38106 | -44.19970 | 7860 ft | 245 kts | 138° |
| 2026-04-30 21:01 | -19.39446 | -44.18910 | 7718 ft | 239 kts | 153° |
| 2026-04-30 21:01 | -19.42000 | -44.16761 | 7236 ft | 234 kts | 133° |
| 2026-04-30 21:02 | -19.43177 | -44.15567 | 7005 ft | 234 kts | 137° |
| 2026-04-30 21:02 | -19.44406 | -44.14435 | 6825 ft | 234 kts | 138° |
| 2026-04-30 21:02 | -19.45635 | -44.13314 | 6832 ft | 232 kts | 138° |
| 2026-04-30 21:02 | -19.46838 | -44.12200 | 6704 ft | 224 kts | 137° |
| 2026-04-30 21:03 | -19.47964 | -44.11153 | 6407 ft | 207 kts | 137° |
| 2026-04-30 21:03 | -19.49019 | -44.10176 | 6070 ft | 196 kts | 137° |
| 2026-04-30 21:03 | -19.50020 | -44.09249 | 5757 ft | 186 kts | 137° |
| 2026-04-30 21:03 | -19.50959 | -44.08378 | 5507 ft | 172 kts | 136° |
| 2026-04-30 21:04 | -19.51825 | -44.07575 | 5296 ft | 159 kts | 136° |
| 2026-04-30 21:04 | -19.52632 | -44.06827 | 5106 ft | 151 kts | 137° |
| 2026-04-30 21:04 | -19.54122 | -44.05448 | 4808 ft | 135 kts | 135° |
| 2026-04-30 21:05 | -19.54826 | -44.04794 | 4628 ft | 134 kts | 135° |
| 2026-04-30 21:05 | -19.55528 | -44.04143 | 4472 ft | 134 kts | 135° |
| 2026-04-30 21:05 | -19.56229 | -44.03493 | 4298 ft | 134 kts | 135° |
| 2026-04-30 21:05 | -19.56922 | -44.02851 | 4125 ft | 133 kts | 135° |
| 2026-04-30 21:06 | -19.57626 | -44.02198 | 3954 ft | 133 kts | 135° |
| 2026-04-30 21:06 | -19.58323 | -44.01551 | 3789 ft | 133 kts | 136° |
| 2026-04-30 21:06 | -19.59019 | -44.00905 | 3622 ft | 133 kts | 136° |
| 2026-04-30 21:06 | -19.59714 | -44.00260 | 3464 ft | 133 kts | 137° |
| 2026-04-30 21:07 | -19.60410 | -43.99615 | 3313 ft | 133 kts | 137° |
| 2026-04-30 21:07 | -19.61105 | -43.98963 | 3164 ft | 132 kts | 137° |
| 2026-04-30 21:07 | -19.61790 | -43.98323 | 2976 ft | 129 kts | 139° |
| 2026-04-30 21:07 | -19.62477 | -43.97694 | 2834 ft | 132 kts | 138° |
| 2026-04-30 21:08 | -19.63111 | -43.97116 | 2822 ft | 92 kts | 139° |
| 2026-04-30 21:08 | -19.63382 | -43.96863 | 2819 ft | 28 kts | 139° |
| 2026-04-30 21:08 | -19.63512 | -43.96738 | 2821 ft | 25 kts | 135° |
| 2026-04-30 21:08 | -19.63576 | -43.96627 | 2817 ft | 6 kts | 112° |
| 2026-04-30 21:09 | -19.63584 | -43.96605 | 2821 ft | 0 kts | 111° |